Time;durP1;ratioP1;P1;durP2;ratioP2;P2;SDS_P1;SDS_P2;PMS_P1;PMS_P2;Temp;Humidity;BMP_temperature;BMP_pressure;BME280_temperature;BME280_humidity;BME280_pressure;Samples;Min_cycle;Max_cycle;Signal;HPM_P1;HPM_P2
2022/07/02 00:01:52;;;;;;;4.63;3.53;;;;;;;;;;5073240;28;20181;-68
2022/07/02 00:04:20;;;;;;;5.10;3.47;;;;;;;;;;5055147;28;20177;-68
2022/07/02 00:06:47;;;;;;;4.67;3.20;;;;;;;;;;5055316;28;20246;-68
2022/07/02 00:09:13;;;;;;;7.00;3.57;;;;;;;;;;5073253;28;20200;-67
2022/07/02 00:11:40;;;;;;;6.97;3.50;;;;;;;;;;5055492;28;20182;-68
2022/07/02 00:14:06;;;;;;;4.77;2.80;;;;;;;;;;5055036;28;20173;-68
2022/07/02 00:16:32;;;;;;;4.90;3.07;;;;;;;;;;5073090;28;20202;-67
2022/07/02 00:18:58;;;;;;;5.10;3.13;;;;;;;;;;5073614;28;20680;-68
2022/07/02 00:21:25;;;;;;;3.27;2.87;;;;;;;;;;5055185;28;20251;-67
2022/07/02 00:23:51;;;;;;;6.90;3.50;;;;;;;;;;5054966;28;20205;-68
2022/07/02 00:26:18;;;;;;;4.67;2.97;;;;;;;;;;5073402;28;20204;-67
2022/07/02 00:28:46;;;;;;;5.07;2.60;;;;;;;;;;5072997;28;20285;-67
2022/07/02 00:31:12;;;;;;;4.37;2.73;;;;;;;;;;5055111;28;20180;-67
2022/07/02 00:33:39;;;;;;;3.60;3.17;;;;;;;;;;5055179;28;20182;-68
2022/07/02 00:36:05;;;;;;;3.97;2.90;;;;;;;;;;5055075;28;20188;-69
2022/07/02 00:38:31;;;;;;;4.37;2.90;;;;;;;;;;5055608;28;20197;-67
2022/07/02 00:40:58;;;;;;;4.27;3.10;;;;;;;;;;5076905;28;20174;-67
2022/07/02 00:43:24;;;;;;;3.73;3.00;;;;;;;;;;5077353;28;20185;-67
2022/07/02 00:45:51;;;;;;;2.90;2.70;;;;;;;;;;5058823;28;20205;-68
2022/07/02 00:48:16;;;;;;;4.80;3.47;;;;;;;;;;5076841;28;20267;-68
2022/07/02 00:50:42;;;;;;;3.20;2.90;;;;;;;;;;5058749;28;20638;-67
2022/07/02 00:53:08;;;;;;;6.60;2.90;;;;;;;;;;5076458;28;20235;-67
2022/07/02 00:55:34;;;;;;;5.10;3.00;;;;;;;;;;5076360;28;20177;-67
2022/07/02 00:58:01;;;;;;;8.13;3.37;;;;;;;;;;5076427;28;20206;-67
2022/07/02 01:00:27;;;;;;;5.63;3.50;;;;;;;;;;5076650;28;20704;-67
2022/07/02 01:02:56;;;;;;;6.33;3.20;;;;;;;;;;5076507;28;20173;-67
2022/07/02 01:05:22;;;;;;;7.73;3.50;;;;;;;;;;5076435;28;20568;-67
2022/07/02 01:10:46;;;;;;;4.63;3.33;;;;;;;;;;5076556;28;20228;-67
2022/07/02 01:13:13;;;;;;;5.20;3.60;;;;;;;;;;5076096;28;20248;-67
2022/07/02 01:15:39;;;;;;;5.53;4.03;;;;;;;;;;5076203;28;20177;-67
2022/07/02 01:18:05;;;;;;;4.80;3.43;;;;;;;;;;5075898;28;20630;-67
2022/07/02 01:20:31;;;;;;;3.53;3.20;;;;;;;;;;5058102;28;20556;-68
2022/07/02 01:22:57;;;;;;;4.60;3.20;;;;;;;;;;5076027;28;20174;-67
2022/07/02 01:25:23;;;;;;;4.03;3.33;;;;;;;;;;5058120;28;20582;-67
2022/07/02 01:27:49;;;;;;;5.33;3.50;;;;;;;;;;5076222;28;20198;-67
2022/07/02 01:30:15;;;;;;;5.23;3.97;;;;;;;;;;5075919;28;20209;-68
2022/07/02 01:32:41;;;;;;;4.90;3.40;;;;;;;;;;5075876;28;20173;-68
2022/07/02 01:35:09;;;;;;;5.70;3.40;;;;;;;;;;5075871;28;20188;-67
2022/07/02 01:37:37;;;;;;;3.70;3.40;;;;;;;;;;5075561;28;20206;-67
2022/07/02 01:40:03;;;;;;;7.83;4.37;;;;;;;;;;5075624;28;20304;-67
2022/07/02 01:42:29;;;;;;;4.10;3.67;;;;;;;;;;5076076;28;20210;-67
2022/07/02 01:44:55;;;;;;;5.80;3.83;;;;;;;;;;5075655;28;20178;-67
2022/07/02 01:47:21;;;;;;;6.70;3.90;;;;;;;;;;5075346;28;20184;-68
2022/07/02 01:49:47;;;;;;;7.17;4.07;;;;;;;;;;5057217;28;20320;-67
2022/07/02 01:52:14;;;;;;;4.90;4.10;;;;;;;;;;5057084;28;20182;-68
2022/07/02 01:54:40;;;;;;;6.57;4.33;;;;;;;;;;5075304;28;20256;-67
2022/07/02 01:57:06;;;;;;;6.37;3.90;;;;;;;;;;5075494;28;20292;-67
2022/07/02 01:59:33;;;;;;;4.27;3.87;;;;;;;;;;5075331;28;20189;-67
2022/07/02 02:01:58;;;;;;;7.93;4.73;;;;;;;;;;5075286;28;20178;-67
2022/07/02 02:04:24;;;;;;;7.37;4.17;;;;;;;;;;5075884;28;20261;-67
2022/07/02 02:06:51;;;;;;;4.97;3.73;;;;;;;;;;5075281;28;20185;-67
2022/07/02 02:09:17;;;;;;;4.90;4.30;;;;;;;;;;5075095;28;20649;-67
2022/07/02 02:11:43;;;;;;;5.33;3.77;;;;;;;;;;5075353;28;20210;-68
2022/07/02 02:14:09;;;;;;;4.53;3.97;;;;;;;;;;5075716;28;20189;-67
2022/07/02 02:16:35;;;;;;;4.73;3.87;;;;;;;;;;5074901;28;20197;-67
2022/07/02 02:19:01;;;;;;;4.80;4.40;;;;;;;;;;5057148;28;20197;-67
2022/07/02 02:21:29;;;;;;;4.80;4.30;;;;;;;;;;5057304;28;20200;-68
2022/07/02 02:23:55;;;;;;;7.63;4.93;;;;;;;;;;5075085;28;20174;-68
2022/07/02 02:26:21;;;;;;;5.50;4.87;;;;;;;;;;5075477;28;20205;-67
2022/07/02 02:28:47;;;;;;;6.13;4.40;;;;;;;;;;5074786;28;20228;-67
2022/07/02 02:31:13;;;;;;;7.17;4.20;;;;;;;;;;5074805;28;20215;-67
2022/07/02 02:33:39;;;;;;;7.50;4.53;;;;;;;;;;5075161;28;20182;-67
2022/07/02 02:36:05;;;;;;;5.40;4.50;;;;;;;;;;5074953;28;20213;-67
2022/07/02 02:38:31;;;;;;;5.43;4.43;;;;;;;;;;5057033;28;20279;-68
2022/07/02 02:40:57;;;;;;;4.67;4.20;;;;;;;;;;5074813;28;20541;-68
2022/07/02 02:43:23;;;;;;;5.73;4.17;;;;;;;;;;5074510;28;20257;-68
2022/07/02 02:45:49;;;;;;;5.93;4.43;;;;;;;;;;5074551;28;20206;-68
2022/07/02 02:48:16;;;;;;;6.27;4.43;;;;;;;;;;5074457;28;20300;-68
2022/07/02 02:50:42;;;;;;;8.27;4.60;;;;;;;;;;5056534;28;20593;-68
2022/07/02 02:53:08;;;;;;;6.03;4.37;;;;;;;;;;5074387;28;20588;-67
2022/07/02 02:55:34;;;;;;;7.50;4.80;;;;;;;;;;5074542;28;20181;-68
2022/07/02 02:58:00;;;;;;;7.50;4.47;;;;;;;;;;5056375;28;20217;-68
2022/07/02 03:00:27;;;;;;;7.00;4.53;;;;;;;;;;5074390;28;20178;-68
2022/07/02 03:02:53;;;;;;;6.63;4.83;;;;;;;;;;5055170;28;20211;-68
2022/07/02 03:05:19;;;;;;;11.07;4.43;;;;;;;;;;5074562;28;20642;-68
2022/07/02 03:07:45;;;;;;;8.60;4.80;;;;;;;;;;5073899;28;20232;-67
2022/07/02 03:10:11;;;;;;;4.63;4.13;;;;;;;;;;5055953;28;20222;-68
2022/07/02 03:12:37;;;;;;;4.80;4.40;;;;;;;;;;5073821;28;20185;-68
2022/07/02 03:15:03;;;;;;;4.80;4.27;;;;;;;;;;5073861;28;20182;-67
2022/07/02 03:17:29;;;;;;;9.33;4.70;;;;;;;;;;5073514;28;20551;-67
2022/07/02 03:19:55;;;;;;;8.23;4.70;;;;;;;;;;5055792;28;20182;-68
2022/07/02 03:22:21;;;;;;;5.40;4.90;;;;;;;;;;5073974;28;20239;-68
2022/07/02 03:24:47;;;;;;;8.47;4.50;;;;;;;;;;5073741;28;20188;-68
2022/07/02 03:27:12;;;;;;;7.43;5.10;;;;;;;;;;5073695;28;20217;-68
2022/07/02 03:29:38;;;;;;;7.10;4.97;;;;;;;;;;5073587;28;20251;-67
2022/07/02 03:32:05;;;;;;;6.40;4.77;;;;;;;;;;5073686;28;20633;-68
2022/07/02 03:34:30;;;;;;;9.17;4.70;;;;;;;;;;5055572;28;20182;-68
2022/07/02 03:36:56;;;;;;;5.33;4.43;;;;;;;;;;5055633;28;20301;-67
2022/07/02 03:39:22;;;;;;;6.37;4.73;;;;;;;;;;5073522;28;20193;-68
2022/07/02 03:41:48;;;;;;;7.33;5.57;;;;;;;;;;5073901;28;20177;-67
2022/07/02 03:44:14;;;;;;;7.47;5.30;;;;;;;;;;5073829;28;20206;-68
2022/07/02 03:46:40;;;;;;;6.90;4.90;;;;;;;;;;5055465;28;20189;-68
2022/07/02 03:49:06;;;;;;;7.00;5.17;;;;;;;;;;5073509;28;20217;-67
2022/07/02 03:51:32;;;;;;;8.83;5.30;;;;;;;;;;5073456;28;20184;-68
2022/07/02 03:53:58;;;;;;;8.10;5.57;;;;;;;;;;5073406;28;20304;-68
2022/07/02 03:56:24;;;;;;;11.70;5.70;;;;;;;;;;5055391;28;20262;-68
2022/07/02 03:58:50;;;;;;;8.37;5.50;;;;;;;;;;5055292;28;20198;-67
2022/07/02 04:01:16;;;;;;;11.57;6.50;;;;;;;;;;5073330;28;20252;-68
2022/07/02 04:03:42;;;;;;;9.67;5.13;;;;;;;;;;5055386;28;20291;-68
2022/07/02 04:06:08;;;;;;;8.63;5.20;;;;;;;;;;5073291;28;20239;-68
2022/07/02 04:08:34;;;;;;;6.10;4.87;;;;;;;;;;5073121;28;20197;-68
2022/07/02 04:11:00;;;;;;;6.10;4.50;;;;;;;;;;5055227;28;20231;-67
2022/07/02 04:13:26;;;;;;;5.63;4.30;;;;;;;;;;5074246;28;20177;-69
2022/07/02 04:15:52;;;;;;;5.97;4.67;;;;;;;;;;5077300;28;20312;-68
2022/07/02 04:18:18;;;;;;;5.73;4.20;;;;;;;;;;5077163;28;20240;-67
2022/07/02 04:20:44;;;;;;;5.30;4.43;;;;;;;;;;5059437;28;20265;-68
2022/07/02 04:23:10;;;;;;;10.03;4.50;;;;;;;;;;5077308;28;20293;-68
2022/07/02 04:25:37;;;;;;;6.37;4.30;;;;;;;;;;5077426;28;20177;-67
2022/07/02 04:28:03;;;;;;;7.50;4.53;;;;;;;;;;5059230;28;20338;-67
2022/07/02 04:30:29;;;;;;;4.97;3.80;;;;;;;;;;5077128;28;20319;-68
2022/07/02 04:32:55;;;;;;;6.20;4.30;;;;;;;;;;5059073;28;20688;-68
2022/07/02 04:35:21;;;;;;;5.93;4.00;;;;;;;;;;5058981;28;20186;-70
2022/07/02 04:37:47;;;;;;;9.63;4.07;;;;;;;;;;5077227;28;20217;-67
2022/07/02 04:40:13;;;;;;;4.53;3.87;;;;;;;;;;5077282;28;20656;-67
2022/07/02 04:42:39;;;;;;;4.30;3.83;;;;;;;;;;5077278;28;20178;-67
2022/07/02 04:45:05;;;;;;;6.27;3.97;;;;;;;;;;5076742;28;20170;-67
2022/07/02 04:47:32;;;;;;;3.50;3.20;;;;;;;;;;5076713;28;20664;-67
2022/07/02 04:49:57;;;;;;;4.17;3.77;;;;;;;;;;5059638;28;20536;-67
2022/07/02 04:52:23;;;;;;;5.37;3.43;;;;;;;;;;5077023;28;20183;-69
2022/07/02 04:54:50;;;;;;;6.30;3.40;;;;;;;;;;5077451;28;20646;-68
2022/07/02 04:57:16;;;;;;;4.53;3.20;;;;;;;;;;5076594;28;20600;-68
2022/07/02 04:59:45;;;;;;;4.43;3.00;;;;;;;;;;5058516;28;20193;-68
2022/07/02 05:04:48;;;;;;;6.80;3.10;;;;;;;;;;5035669;28;20214;-66
2022/07/02 05:07:14;;;;;;;5.57;3.73;;;;;;;;;;5018624;28;20182;-67
2022/07/02 05:09:40;;;;;;;3.93;2.60;;;;;;;;;;5036621;28;20094;-67
2022/07/02 05:12:07;;;;;;;4.20;2.30;;;;;;;;;;5018743;28;20156;-67
2022/07/02 05:14:33;;;;;;;2.93;2.60;;;;;;;;;;5036168;28;20199;-67
2022/07/02 05:16:59;;;;;;;2.80;2.23;;;;;;;;;;5036153;28;20693;-67
2022/07/02 05:19:25;;;;;;;3.03;2.70;;;;;;;;;;5036102;28;20180;-67
2022/07/02 05:21:50;;;;;;;3.03;2.67;;;;;;;;;;5036087;28;20199;-67
2022/07/02 05:24:16;;;;;;;4.10;2.83;;;;;;;;;;5035917;28;20202;-67
2022/07/02 05:26:42;;;;;;;4.63;2.73;;;;;;;;;;5035199;28;20182;-67
2022/07/02 05:29:08;;;;;;;3.03;2.70;;;;;;;;;;5035832;28;20239;-67
2022/07/02 05:31:34;;;;;;;5.07;2.97;;;;;;;;;;5035980;28;20179;-67
2022/07/02 05:34:00;;;;;;;6.07;3.17;;;;;;;;;;5018071;28;20206;-66
2022/07/02 05:36:26;;;;;;;7.43;3.70;;;;;;;;;;5018046;28;20685;-67
2022/07/02 05:38:52;;;;;;;4.93;3.20;;;;;;;;;;5035997;28;20258;-67
2022/07/02 05:41:18;;;;;;;6.37;3.63;;;;;;;;;;5035843;28;20182;-67
2022/07/02 05:43:44;;;;;;;7.77;3.30;;;;;;;;;;5018127;28;20207;-67
2022/07/02 05:46:10;;;;;;;5.40;3.10;;;;;;;;;;5018158;28;20187;-67
2022/07/02 05:48:36;;;;;;;5.97;3.20;;;;;;;;;;5017968;28;20197;-66
2022/07/02 05:51:02;;;;;;;9.90;5.50;;;;;;;;;;5035620;28;20182;-67
2022/07/02 05:53:28;;;;;;;10.00;4.57;;;;;;;;;;5035460;28;20206;-67
2022/07/02 05:55:54;;;;;;;9.23;6.00;;;;;;;;;;5018207;28;20176;-66
2022/07/02 05:58:20;;;;;;;9.90;5.77;;;;;;;;;;5035428;28;20277;-66
2022/07/02 06:00:46;;;;;;;7.43;4.80;;;;;;;;;;5035327;28;20207;-67
2022/07/02 06:03:12;;;;;;;7.37;5.50;;;;;;;;;;5017540;28;20261;-67
2022/07/02 06:08:22;;;;;;;11.70;6.80;;;;;;;;;;5035708;28;20713;-66
2022/07/02 06:10:48;;;;;;;12.20;8.18;;;;;;;;;;5034318;28;20391;-66
2022/07/02 06:13:16;;;;;;;16.77;8.17;;;;;;;;;;5035164;28;20206;-66
2022/07/02 06:15:42;;;;;;;18.07;7.77;;;;;;;;;;5017982;28;20186;-66
2022/07/02 06:18:08;;;;;;;14.40;8.10;;;;;;;;;;5035282;28;20199;-66
2022/07/02 06:20:35;;;;;;;17.43;9.10;;;;;;;;;;5035359;28;20210;-66
2022/07/02 06:23:01;;;;;;;11.43;7.40;;;;;;;;;;5035560;28;20538;-66
2022/07/02 06:25:26;;;;;;;12.03;6.97;;;;;;;;;;5035687;28;20286;-67
2022/07/02 06:27:52;;;;;;;11.73;5.67;;;;;;;;;;5035620;28;20186;-66
2022/07/02 06:30:18;;;;;;;8.80;5.20;;;;;;;;;;5035362;28;20563;-66
2022/07/02 06:32:45;;;;;;;8.17;4.50;;;;;;;;;;5035079;28;20210;-66
2022/07/02 06:35:11;;;;;;;7.73;4.83;;;;;;;;;;5035129;28;20257;-69
2022/07/02 06:37:37;;;;;;;15.73;7.30;;;;;;;;;;5034673;28;20554;-66
2022/07/02 06:40:03;;;;;;;11.90;6.47;;;;;;;;;;5017084;28;20189;-67
2022/07/02 06:42:29;;;;;;;12.27;6.40;;;;;;;;;;5034963;28;20183;-66
2022/07/02 06:44:56;;;;;;;8.77;6.27;;;;;;;;;;5034693;28;20225;-66
2022/07/02 06:47:22;;;;;;;12.13;5.97;;;;;;;;;;5017033;28;20184;-66
2022/07/02 06:49:49;;;;;;;9.07;5.63;;;;;;;;;;5034404;28;20214;-68
2022/07/02 06:52:15;;;;;;;8.57;5.00;;;;;;;;;;5034500;28;20240;-66
2022/07/02 06:54:41;;;;;;;7.73;4.30;;;;;;;;;;5034370;28;20186;-67
2022/07/02 06:57:08;;;;;;;9.30;5.03;;;;;;;;;;5034322;28;20284;-66
2022/07/02 06:59:34;;;;;;;8.23;5.20;;;;;;;;;;5034264;28;20175;-66
2022/07/02 07:02:00;;;;;;;7.40;4.40;;;;;;;;;;5034303;28;20179;-67
2022/07/02 07:04:29;;;;;;;4.73;3.90;;;;;;;;;;5033527;28;20231;-66
2022/07/02 07:06:56;;;;;;;6.37;3.63;;;;;;;;;;5036331;28;20244;-67
2022/07/02 07:09:26;;;;;;;10.30;6.50;;;;;;;;;;5036244;28;20194;-66
2022/07/02 07:11:51;;;;;;;9.00;6.30;;;;;;;;;;5054146;28;20654;-66
2022/07/02 07:14:18;;;;;;;12.60;6.47;;;;;;;;;;5054056;28;20198;-66
2022/07/02 07:16:44;;;;;;;12.07;6.53;;;;;;;;;;5035975;28;20620;-66
2022/07/02 07:19:10;;;;;;;12.80;7.17;;;;;;;;;;5053863;28;20201;-66
2022/07/02 07:21:40;;;;;;;12.97;7.37;;;;;;;;;;5054110;28;20182;-66
2022/07/02 07:24:06;;;;;;;13.27;7.03;;;;;;;;;;5053739;28;20277;-66
2022/07/02 07:26:32;;;;;;;10.87;6.10;;;;;;;;;;5053827;28;20179;-66
2022/07/02 07:29:00;;;;;;;12.60;5.40;;;;;;;;;;5053830;28;20212;-65
2022/07/02 07:31:26;;;;;;;11.27;5.57;;;;;;;;;;5053812;28;20211;-66
2022/07/02 07:33:53;;;;;;;9.97;4.80;;;;;;;;;;5053716;28;20714;-66
2022/07/02 07:36:20;;;;;;;7.73;4.57;;;;;;;;;;5054237;28;20186;-66
2022/07/02 07:38:46;;;;;;;7.60;4.83;;;;;;;;;;5053804;28;20216;-65
2022/07/02 07:41:12;;;;;;;6.37;4.40;;;;;;;;;;5053890;28;20174;-65
2022/07/02 07:43:38;;;;;;;7.63;4.50;;;;;;;;;;5053592;28;20202;-66
2022/07/02 07:46:04;;;;;;;8.00;4.60;;;;;;;;;;5053583;28;20204;-66
2022/07/02 07:48:30;;;;;;;11.30;4.80;;;;;;;;;;5035066;28;20602;-66
2022/07/02 07:50:56;;;;;;;8.40;3.57;;;;;;;;;;5053425;28;20181;-66
2022/07/02 07:53:22;;;;;;;4.83;2.47;;;;;;;;;;5035480;28;20237;-66
2022/07/02 07:55:48;;;;;;;3.00;1.73;;;;;;;;;;5053392;28;20178;-66
2022/07/02 07:58:14;;;;;;;2.67;1.60;;;;;;;;;;5053604;28;20712;-66
2022/07/02 08:00:40;;;;;;;2.60;2.13;;;;;;;;;;5035240;28;20179;-68
2022/07/02 08:03:06;;;;;;;3.93;1.80;;;;;;;;;;5053267;28;20225;-67
2022/07/02 08:05:32;;;;;;;2.23;1.60;;;;;;;;;;5053510;28;20582;-67
2022/07/02 08:07:58;;;;;;;4.77;2.87;;;;;;;;;;5053718;28;20217;-67
2022/07/02 08:10:24;;;;;;;8.60;2.90;;;;;;;;;;5053782;28;20686;-68
2022/07/02 08:12:53;;;;;;;3.50;2.23;;;;;;;;;;5053866;28;20229;-67
2022/07/02 08:15:19;;;;;;;2.40;1.90;;;;;;;;;;5054271;28;20189;-67
2022/07/02 08:17:45;;;;;;;2.47;1.90;;;;;;;;;;5036185;28;20649;-67
2022/07/02 08:20:11;;;;;;;1.70;1.60;;;;;;;;;;5053836;28;20197;-67
2022/07/02 08:22:38;;;;;;;3.47;1.70;;;;;;;;;;5036269;28;20205;-67
2022/07/02 08:25:04;;;;;;;1.73;1.50;;;;;;;;;;5035867;28;20178;-66
2022/07/02 08:27:30;;;;;;;2.20;1.40;;;;;;;;;;5053784;28;20257;-66
2022/07/02 08:29:56;;;;;;;4.13;2.10;;;;;;;;;;5035789;28;20218;-66
2022/07/02 08:32:22;;;;;;;3.10;1.97;;;;;;;;;;5053804;28;20178;-66
2022/07/02 08:34:48;;;;;;;1.63;1.30;;;;;;;;;;5053640;28;20297;-66
2022/07/02 08:37:15;;;;;;;2.80;1.63;;;;;;;;;;5053436;28;20247;-67
2022/07/02 08:39:41;;;;;;;2.00;1.20;;;;;;;;;;5035841;28;20204;-65
2022/07/02 08:42:09;;;;;;;3.27;1.40;;;;;;;;;;5053454;28;20682;-68
2022/07/02 08:44:35;;;;;;;3.13;1.43;;;;;;;;;;5035067;28;20573;-68
2022/07/02 08:47:03;;;;;;;2.30;1.43;;;;;;;;;;5053755;28;20178;-66
2022/07/02 08:49:31;;;;;;;1.30;1.20;;;;;;;;;;5053182;28;20202;-67
2022/07/02 08:52:06;;;;;;;8.47;1.50;;;;;;;;;;5053289;28;20595;-68
2022/07/02 08:54:32;;;;;;;5.10;1.20;;;;;;;;;;5052991;28;20224;-67
2022/07/02 08:57:00;;;;;;;1.73;1.20;;;;;;;;;;5053462;28;20247;-67
2022/07/02 08:59:26;;;;;;;3.07;1.80;;;;;;;;;;5053520;28;20179;-68
2022/07/02 09:01:52;;;;;;;3.90;1.60;;;;;;;;;;5056876;28;20174;-67
2022/07/02 09:04:19;;;;;;;1.57;1.40;;;;;;;;;;5056531;28;20723;-67
2022/07/02 09:06:48;;;;;;;4.20;1.73;;;;;;;;;;5038741;28;20182;-65
2022/07/02 09:09:16;;;;;;;1.57;1.30;;;;;;;;;;5056766;28;20182;-67
2022/07/02 09:11:42;;;;;;;1.73;1.47;;;;;;;;;;5057092;28;20182;-67
2022/07/02 09:14:08;;;;;;;2.63;1.60;;;;;;;;;;5056478;28;20198;-67
2022/07/02 09:16:36;;;;;;;3.00;1.27;;;;;;;;;;5038580;28;20213;-67
2022/07/02 09:19:02;;;;;;;2.87;1.70;;;;;;;;;;5056939;28;20172;-67
2022/07/02 09:21:28;;;;;;;3.20;1.70;;;;;;;;;;5056849;28;20205;-67
2022/07/02 09:23:54;;;;;;;2.77;1.40;;;;;;;;;;5056268;28;20190;-67
2022/07/02 09:26:21;;;;;;;3.17;1.30;;;;;;;;;;5056354;28;20170;-67
2022/07/02 09:28:56;;;;;;;1.80;1.30;;;;;;;;;;5038489;28;20221;-66
2022/07/02 09:31:22;;;;;;;2.67;1.23;;;;;;;;;;5056445;28;20204;-66
2022/07/02 09:33:48;;;;;;;1.83;1.20;;;;;;;;;;5056665;28;20234;-67
2022/07/02 09:36:14;;;;;;;1.60;1.20;;;;;;;;;;5038156;28;20217;-66
2022/07/02 09:38:44;;;;;;;3.83;1.03;;;;;;;;;;5040102;28;20643;-67
2022/07/02 09:41:11;;;;;;;1.83;1.37;;;;;;;;;;5041002;28;20178;-68
2022/07/02 09:43:38;;;;;;;3.63;1.83;;;;;;;;;;5059077;28;20220;-67
2022/07/02 09:46:13;;;;;;;2.33;1.40;;;;;;;;;;5057762;28;20240;-67
2022/07/02 09:48:39;;;;;;;5.13;1.97;;;;;;;;;;5058385;28;20167;-68
2022/07/02 09:51:05;;;;;;;1.57;1.00;;;;;;;;;;5038018;28;20193;-67
2022/07/02 09:53:32;;;;;;;3.03;1.27;;;;;;;;;;5056044;28;20201;-67
2022/07/02 09:55:58;;;;;;;1.37;1.10;;;;;;;;;;5055827;28;20206;-67
2022/07/02 09:58:28;;;;;;;1.47;1.37;;;;;;;;;;5055859;28;20237;-67
2022/07/02 10:00:55;;;;;;;2.33;1.10;;;;;;;;;;5037786;28;20567;-67
2022/07/02 10:03:21;;;;;;;1.63;1.40;;;;;;;;;;5055749;28;20701;-69
2022/07/02 10:05:52;;;;;;;1.80;1.13;;;;;;;;;;5038058;28;20591;-68
2022/07/02 10:08:18;;;;;;;1.80;1.23;;;;;;;;;;5056288;28;20170;-68
2022/07/02 10:10:45;;;;;;;1.73;1.10;;;;;;;;;;5055695;28;20189;-67
2022/07/02 10:13:13;;;;;;;4.20;1.97;;;;;;;;;;5055317;28;20202;-67
2022/07/02 10:15:53;;;;;;;4.90;1.93;;;;;;;;;;5055849;28;20186;-69
2022/07/02 10:18:19;;;;;;;2.47;1.60;;;;;;;;;;5055384;28;20681;-67
2022/07/02 10:20:45;;;;;;;2.73;1.37;;;;;;;;;;5055782;28;20180;-69
2022/07/02 10:23:11;;;;;;;3.27;1.57;;;;;;;;;;5055536;28;20194;-67
2022/07/02 10:25:38;;;;;;;2.57;1.20;;;;;;;;;;5037581;28;20179;-67
2022/07/02 10:28:04;;;;;;;1.93;1.10;;;;;;;;;;5037333;28;20699;-68
2022/07/02 10:30:33;;;;;;;3.10;1.57;;;;;;;;;;5055470;28;20182;-67
2022/07/02 10:33:07;;;;;;;4.07;1.33;;;;;;;;;;5054836;28;20225;-67
2022/07/02 10:35:34;;;;;;;1.53;1.40;;;;;;;;;;5036950;28;20356;-68
2022/07/02 10:38:01;;;;;;;2.17;1.23;;;;;;;;;;5054853;28;20198;-67
2022/07/02 10:40:27;;;;;;;1.70;1.40;;;;;;;;;;5054667;28;20258;-68
2022/07/02 10:42:57;;;;;;;3.50;1.47;;;;;;;;;;5054487;28;20206;-69
2022/07/02 10:45:24;;;;;;;1.93;1.43;;;;;;;;;;5036911;28;20176;-68
2022/07/02 10:47:53;;;;;;;4.37;2.10;;;;;;;;;;5054447;28;20696;-67
2022/07/02 10:50:20;;;;;;;3.67;1.50;;;;;;;;;;5036522;28;20650;-67
2022/07/02 10:52:50;;;;;;;2.83;1.60;;;;;;;;;;5036586;28;20257;-68
2022/07/02 10:55:26;;;;;;;1.63;1.07;;;;;;;;;;5054824;28;20235;-67
2022/07/02 10:57:56;;;;;;;1.87;1.30;;;;;;;;;;5054669;28;20609;-68
2022/07/02 11:00:29;;;;;;;2.37;1.37;;;;;;;;;;5036440;28;20178;-67
2022/07/02 11:02:59;;;;;;;3.07;1.80;;;;;;;;;;5054265;28;20239;-68
2022/07/02 11:05:25;;;;;;;2.03;1.57;;;;;;;;;;5036556;28;20193;-67
2022/07/02 11:07:51;;;;;;;1.20;1.10;;;;;;;;;;5054469;28;20231;-67
2022/07/02 11:10:25;;;;;;;2.93;1.40;;;;;;;;;;5036570;28;20643;-66
2022/07/02 11:12:55;;;;;;;1.90;1.20;;;;;;;;;;5054586;28;20343;-67
2022/07/02 11:15:25;;;;;;;1.40;1.30;;;;;;;;;;5054549;28;20178;-67
2022/07/02 11:17:52;;;;;;;2.13;1.33;;;;;;;;;;5045164;28;20209;-67
2022/07/02 11:20:27;;;;;;;3.77;1.50;;;;;;;;;;5054220;28;20182;-67
2022/07/02 11:22:53;;;;;;;2.43;1.40;;;;;;;;;;5035700;28;20202;-69
2022/07/02 11:25:20;;;;;;;2.23;1.60;;;;;;;;;;5054138;28;20170;-66
2022/07/02 11:28:02;;;;;;;6.47;1.80;;;;;;;;;;5036302;28;20186;-67
2022/07/02 11:30:30;;;;;;;5.37;1.50;;;;;;;;;;5054353;28;20182;-67
2022/07/02 11:32:56;;;;;;;3.80;1.50;;;;;;;;;;5036035;28;20213;-66
2022/07/02 11:35:22;;;;;;;1.37;1.27;;;;;;;;;;5054282;28;20212;-66
2022/07/02 11:37:48;;;;;;;2.97;1.50;;;;;;;;;;5053772;28;20645;-67
2022/07/02 11:40:18;;;;;;;2.43;1.53;;;;;;;;;;5054175;28;20242;-66
2022/07/02 11:42:44;;;;;;;2.13;1.30;;;;;;;;;;5053570;28;20525;-66
2022/07/02 11:45:10;;;;;;;2.00;1.50;;;;;;;;;;5054221;28;20225;-66
2022/07/02 11:47:49;;;;;;;3.80;1.60;;;;;;;;;;5053977;28;20252;-67
2022/07/02 11:50:27;;;;;;;1.63;1.40;;;;;;;;;;5035837;28;20182;-66
2022/07/02 11:52:52;;;;;;;7.40;1.80;;;;;;;;;;5053752;28;20600;-67
2022/07/02 11:55:19;;;;;;;1.93;1.60;;;;;;;;;;5053613;28;20183;-67
2022/07/02 11:57:45;;;;;;;1.83;1.43;;;;;;;;;;5035516;28;20270;-67
2022/07/02 12:00:11;;;;;;;2.23;1.50;;;;;;;;;;5035489;28;20544;-67
2022/07/02 12:02:41;;;;;;;2.17;1.40;;;;;;;;;;5053729;28;20562;-69
2022/07/02 12:05:14;;;;;;;5.90;1.87;;;;;;;;;;5035559;28;20162;-65
2022/07/02 12:07:41;;;;;;;2.70;1.87;;;;;;;;;;5035613;28;20182;-67
2022/07/02 12:10:08;;;;;;;3.47;1.70;;;;;;;;;;5053458;28;20674;-68
2022/07/02 12:12:35;;;;;;;1.77;1.30;;;;;;;;;;5053139;28;20240;-68
2022/07/02 12:15:01;;;;;;;3.30;1.27;;;;;;;;;;5053603;28;20179;-68
2022/07/02 12:17:28;;;;;;;3.37;1.40;;;;;;;;;;5035134;28;20209;-69
2022/07/02 12:19:54;;;;;;;4.27;2.03;;;;;;;;;;5035756;28;20560;-69
2022/07/02 12:22:24;;;;;;;2.77;1.27;;;;;;;;;;5053611;28;20650;-67
2022/07/02 12:24:51;;;;;;;2.33;1.50;;;;;;;;;;5053222;28;20177;-68
2022/07/02 12:27:18;;;;;;;1.40;1.30;;;;;;;;;;5053591;28;20174;-67
2022/07/02 12:29:53;;;;;;;1.30;1.20;;;;;;;;;;5053328;28;20216;-66
2022/07/02 12:32:20;;;;;;;4.37;2.07;;;;;;;;;;5053374;28;20158;-66
2022/07/02 12:34:47;;;;;;;3.27;2.47;;;;;;;;;;5054544;28;20182;-67
2022/07/02 12:37:23;;;;;;;2.57;1.70;;;;;;;;;;5056939;28;20281;-67
2022/07/02 12:39:50;;;;;;;1.80;1.27;;;;;;;;;;5057218;28;20224;-68
2022/07/02 12:42:21;;;;;;;1.53;1.30;;;;;;;;;;5057788;28;20186;-68
2022/07/02 12:44:53;;;;;;;2.27;1.50;;;;;;;;;;5039099;28;20219;-68
2022/07/02 12:47:26;;;;;;;2.50;1.33;;;;;;;;;;5039056;28;20217;-68
2022/07/02 12:49:56;;;;;;;2.80;1.20;;;;;;;;;;5039129;28;20537;-68
2022/07/02 12:52:23;;;;;;;2.17;1.50;;;;;;;;;;5057255;28;20162;-68
2022/07/02 12:54:48;;;;;;;1.97;1.37;;;;;;;;;;5057016;28;20179;-68
2022/07/02 12:57:14;;;;;;;1.20;1.10;;;;;;;;;;5056810;28;20252;-69
2022/07/02 12:59:41;;;;;;;2.27;1.30;;;;;;;;;;5057059;28;20545;-68
2022/07/02 13:02:09;;;;;;;1.47;1.27;;;;;;;;;;5080840;22;20614;-63
2022/07/02 13:04:35;;;;;;;2.80;1.47;;;;;;;;;;5056254;28;20221;-66
2022/07/02 13:07:01;;;;;;;5.97;2.50;;;;;;;;;;5056455;28;20179;-67
2022/07/02 13:09:27;;;;;;;6.73;2.90;;;;;;;;;;5056275;28;20182;-65
2022/07/02 13:11:53;;;;;;;2.93;2.07;;;;;;;;;;5056365;28;20202;-66
2022/07/02 13:14:19;;;;;;;1.30;1.20;;;;;;;;;;5038518;28;20190;-66
2022/07/02 13:16:45;;;;;;;1.33;1.23;;;;;;;;;;5056006;28;20260;-66
2022/07/02 13:19:11;;;;;;;2.90;1.20;;;;;;;;;;5056465;28;20269;-66
2022/07/02 13:21:37;;;;;;;2.43;1.40;;;;;;;;;;5038213;28;20190;-67
2022/07/02 13:24:03;;;;;;;1.67;1.30;;;;;;;;;;5038222;28;20181;-67
2022/07/02 13:26:29;;;;;;;2.43;1.10;;;;;;;;;;5038104;28;20182;-67
2022/07/02 13:28:55;;;;;;;1.57;1.17;;;;;;;;;;5055982;28;20181;-67
2022/07/02 13:31:21;;;;;;;1.63;1.37;;;;;;;;;;5056006;28;20190;-66
2022/07/02 13:33:47;;;;;;;2.17;1.27;;;;;;;;;;5055874;28;20179;-66
2022/07/02 13:36:13;;;;;;;1.93;1.30;;;;;;;;;;5038691;28;20542;-66
2022/07/02 13:38:38;;;;;;;2.67;1.40;;;;;;;;;;5055686;28;20206;-67
2022/07/02 13:41:04;;;;;;;;;;;;;;;;;;5055837;28;20029;-66
2022/07/02 13:43:30;;;;;;;;;;;;;;;;;;5055966;28;19909;-67
2022/07/02 13:45:56;;;;;;;;;;;;;;;;;;5055211;28;19905;-66
2022/07/02 13:48:22;;;;;;;;;;;;;;;;;;5037819;28;19904;-67
2022/07/02 13:50:48;;;;;;;;;;;;;;;;;;5038015;28;19905;-67
2022/07/02 13:53:14;;;;;;;;;;;;;;;;;;5055942;28;19909;-66
2022/07/02 13:55:39;;;;;;;;;;;;;;;;;;5037810;28;19909;-69
2022/07/02 13:58:05;;;;;;;;;;;;;;;;;;5055793;28;19916;-67
2022/07/02 14:00:31;;;;;;;;;;;;;;;;;;5037582;28;20004;-66
2022/07/02 14:02:57;;;;;;;;;;;;;;;;;;5055550;28;20387;-67
2022/07/02 14:05:23;;;;;;;;;;;;;;;;;;5055542;28;20011;-67
2022/07/02 14:07:49;;;;;;;;;;;;;;;;;;5055915;28;19912;-66
2022/07/02 14:10:15;;;;;;;;;;;;;;;;;;5055552;28;19954;-66
2022/07/02 14:12:40;;;;;;;;;;;;;;;;;;5037612;28;19911;-67
2022/07/02 14:15:07;;;;;;;;;;;;;;;;;;5055508;28;19905;-66
2022/07/02 14:17:32;;;;;;;;;;;;;;;;;;5055292;28;20321;-66
2022/07/02 14:19:58;;;;;;;;;;;;;;;;;;5055588;28;19936;-66
2022/07/02 14:22:29;;;;;;;;;;;;;;;;;;5037587;28;19947;-67
2022/07/02 14:24:55;;;;;;;;;;;;;;;;;;5055305;28;19912;-67
2022/07/02 14:27:20;;;;;;;;;;;;;;;;;;5055224;28;19905;-67
2022/07/02 14:29:46;;;;;;;;;;;;;;;;;;5055217;28;19948;-67
2022/07/02 14:32:12;;;;;;;;;;;;;;;;;;5054954;28;20007;-66
2022/07/02 14:34:38;;;;;;;;;;;;;;;;;;5055244;28;20372;-67
2022/07/02 14:37:04;;;;;;;;;;;;;;;;;;5055007;28;20356;-66
2022/07/02 14:39:30;;;;;;;4.78;4.35;;;;;;;;;;5054938;28;20171;-67
2022/07/02 14:41:56;;;;;;;2.00;1.80;;;;;;;;;;5035352;28;20381;-66
2022/07/02 14:44:23;;;;;;;1.77;1.65;;;;;;;;;;5054366;28;20179;-67
2022/07/02 14:46:49;;;;;;;1.20;1.10;;;;;;;;;;5036431;28;20360;-67
2022/07/02 14:49:15;;;;;;;2.70;1.95;;;;;;;;;;5054183;28;20545;-67
2022/07/02 14:51:42;;;;;;;1.50;1.40;;;;;;;;;;5036365;28;20191;-67
2022/07/02 14:54:08;;;;;;;1.52;1.20;;;;;;;;;;5054289;28;20220;-66